createdAt,value
2023-03-11T00:01:11.641Z,11.70
2023-03-11T00:03:40.309Z,9.00
2023-03-11T00:06:09.212Z,8.70
2023-03-11T00:08:37.844Z,9.60
2023-03-11T00:11:06.379Z,8.70
2023-03-11T00:13:37.219Z,12.40
2023-03-11T00:16:06.628Z,11.90
2023-03-11T00:18:35.000Z,11.70
2023-03-11T00:21:03.892Z,10.70
2023-03-11T00:23:34.832Z,11.50
2023-03-11T00:26:03.503Z,17.10
2023-03-11T00:28:34.281Z,10.90
2023-03-11T00:31:03.799Z,9.60
2023-03-11T00:33:32.754Z,10.60
2023-03-11T00:36:01.346Z,10.60
2023-03-11T00:38:30.242Z,14.70
2023-03-11T00:41:01.944Z,13.30
2023-03-11T00:43:33.437Z,10.90
2023-03-11T00:46:02.294Z,15.20
2023-03-11T00:48:31.117Z,12.40
2023-03-11T00:50:59.910Z,10.20
2023-03-11T00:53:28.799Z,10.70
2023-03-11T00:55:57.894Z,11.20
2023-03-11T00:58:29.177Z,11.40
2023-03-11T01:00:58.878Z,12.70
2023-03-11T01:03:27.827Z,9.50
2023-03-11T01:05:56.539Z,10.70
2023-03-11T01:08:27.478Z,9.30
2023-03-11T01:10:56.569Z,9.70
2023-03-11T01:13:25.976Z,10.40
2023-03-11T01:15:54.601Z,10.50
2023-03-11T01:18:23.861Z,13.00
2023-03-11T01:20:52.946Z,12.70
2023-03-11T01:23:22.060Z,14.30
2023-03-11T01:25:50.705Z,14.30
2023-03-11T01:28:19.221Z,14.50
2023-03-11T01:30:48.135Z,13.10
2023-03-11T01:33:19.790Z,12.50
2023-03-11T01:35:49.750Z,15.60
2023-03-11T01:38:18.680Z,12.30
2023-03-11T01:40:50.720Z,13.20
2023-03-11T01:43:56.604Z,15.40
2023-03-11T01:46:37.235Z,11.10
2023-03-11T01:49:06.380Z,12.60
2023-03-11T01:51:41.189Z,13.00
2023-03-11T01:54:15.351Z,12.10
2023-03-11T01:56:45.945Z,11.00
2023-03-11T01:59:17.810Z,16.60
2023-03-11T02:04:41.092Z,10.70
2023-03-11T02:07:12.201Z,15.80
2023-03-11T02:09:40.832Z,13.40
2023-03-11T02:12:11.726Z,10.60
2023-03-11T02:14:45.463Z,10.00
2023-03-11T02:17:14.565Z,13.80
2023-03-11T02:20:15.615Z,11.30
2023-03-11T02:22:44.808Z,19.00
2023-03-11T02:25:35.821Z,14.50
2023-03-11T02:28:08.713Z,9.60
2023-03-11T02:30:40.148Z,11.80
2023-03-11T02:33:09.923Z,11.30
2023-03-11T02:35:38.589Z,8.60
2023-03-11T02:38:07.412Z,10.90
2023-03-11T02:40:40.334Z,12.30
2023-03-11T02:43:15.175Z,9.60
2023-03-11T02:45:49.192Z,9.30
2023-03-11T02:48:19.086Z,10.00
2023-03-11T02:50:48.190Z,14.20
2023-03-11T02:53:17.592Z,11.00
2023-03-11T02:55:46.480Z,15.70
2023-03-11T02:58:15.267Z,13.60
2023-03-11T03:00:43.881Z,9.80
2023-03-11T03:03:12.643Z,10.30
2023-03-11T03:05:43.069Z,12.10
2023-03-11T03:08:12.065Z,11.20
2023-03-11T03:10:40.854Z,10.50
2023-03-11T03:13:09.963Z,16.60
2023-03-11T03:15:38.951Z,14.50
2023-03-11T03:18:08.038Z,9.70
2023-03-11T03:20:36.703Z,9.30
2023-03-11T03:23:05.720Z,11.50
2023-03-11T03:25:34.821Z,13.60
2023-03-11T03:28:06.170Z,9.50
2023-03-11T03:30:36.879Z,11.50
2023-03-11T03:33:07.177Z,12.90
2023-03-11T03:35:35.965Z,10.40
2023-03-11T03:38:11.573Z,10.00
2023-03-11T03:40:45.899Z,11.30
2023-03-11T03:43:15.263Z,9.30
2023-03-11T03:45:45.754Z,12.70
2023-03-11T03:48:14.301Z,9.20
2023-03-11T03:50:45.307Z,11.10
2023-03-11T03:53:16.866Z,11.40
2023-03-11T03:55:45.381Z,11.80
2023-03-11T03:58:14.584Z,9.00
2023-03-11T04:00:45.017Z,10.70
2023-03-11T04:03:13.951Z,13.10
2023-03-11T04:05:48.121Z,11.50
2023-03-11T04:08:16.928Z,11.50
2023-03-11T04:10:45.905Z,11.60
2023-03-11T04:13:15.038Z,9.20
2023-03-11T04:15:43.661Z,9.70
2023-03-11T04:18:12.172Z,10.90
2023-03-11T04:20:41.067Z,15.70
2023-03-11T04:23:09.756Z,17.20
2023-03-11T04:25:38.560Z,17.60
2023-03-11T04:28:07.634Z,12.50
2023-03-11T04:30:36.366Z,8.60
2023-03-11T04:33:05.124Z,11.30
2023-03-11T04:35:34.648Z,14.90
2023-03-11T04:38:03.205Z,9.10
2023-03-11T04:40:32.189Z,12.70
2023-03-11T04:43:01.799Z,11.70
2023-03-11T04:45:30.385Z,12.30
2023-03-11T04:47:59.480Z,11.80
2023-03-11T04:50:28.577Z,10.90
2023-03-11T04:52:57.672Z,12.90
2023-03-11T04:55:26.574Z,11.50
2023-03-11T04:57:56.071Z,10.20
2023-03-11T05:00:25.597Z,12.00
2023-03-11T05:03:02.731Z,12.80
2023-03-11T05:05:31.580Z,11.40
2023-03-11T05:08:00.343Z,11.70
2023-03-11T05:10:31.991Z,12.80
2023-03-11T05:13:03.448Z,12.60
2023-03-11T05:18:05.493Z,13.60
2023-03-11T05:20:34.120Z,15.40
2023-03-11T05:23:04.447Z,14.50
2023-03-11T05:25:35.605Z,15.00
2023-03-11T05:28:05.473Z,20.00
2023-03-11T05:30:35.134Z,14.20
2023-03-11T05:33:04.832Z,16.70
2023-03-11T05:35:34.659Z,16.30
2023-03-11T05:38:03.736Z,12.60
2023-03-11T05:40:32.425Z,12.50
2023-03-11T05:43:01.832Z,12.20
2023-03-11T05:45:31.131Z,12.40
2023-03-11T05:48:01.239Z,11.80
2023-03-11T05:50:31.755Z,12.10
2023-03-11T05:53:00.882Z,13.90
2023-03-11T05:55:31.014Z,11.90
2023-03-11T05:58:00.442Z,11.20
2023-03-11T06:00:29.745Z,12.60
2023-03-11T06:03:00.540Z,13.70
2023-03-11T06:05:29.506Z,14.00
2023-03-11T06:07:58.329Z,14.60
2023-03-11T06:10:27.812Z,11.90
2023-03-11T06:12:56.687Z,12.60
2023-03-11T06:15:37.500Z,10.80
2023-03-11T06:18:06.485Z,12.80
2023-03-11T06:20:37.881Z,12.20
2023-03-11T06:23:07.041Z,13.40
2023-03-11T06:25:35.898Z,12.90
2023-03-11T06:28:05.105Z,14.10
2023-03-11T06:30:34.221Z,14.20
2023-03-11T06:33:09.871Z,12.80
2023-03-11T06:35:38.489Z,12.80
2023-03-11T06:38:07.555Z,12.60
2023-03-11T06:40:38.721Z,12.80
2023-03-11T06:43:07.702Z,16.30
2023-03-11T06:45:38.760Z,14.40
2023-03-11T06:48:07.444Z,14.50
2023-03-11T06:50:36.824Z,17.00
2023-03-11T06:53:07.996Z,12.60
2023-03-11T06:55:37.374Z,12.40
2023-03-11T06:58:06.676Z,15.50
2023-03-11T07:00:35.362Z,12.90
2023-03-11T07:03:04.459Z,10.00
2023-03-11T07:05:33.661Z,13.30
2023-03-11T07:08:06.133Z,9.60
2023-03-11T07:10:36.055Z,11.00
2023-03-11T07:13:04.534Z,11.30
2023-03-11T07:15:33.323Z,9.10
2023-03-11T07:18:02.115Z,10.30
2023-03-11T07:20:30.917Z,8.90
2023-03-11T07:22:59.898Z,13.20
2023-03-11T07:25:29.114Z,10.40
2023-03-11T07:27:57.688Z,11.30
2023-03-11T07:30:26.776Z,8.80
2023-03-11T07:32:55.727Z,7.50
2023-03-11T07:35:24.260Z,8.50
2023-03-11T07:37:53.050Z,5.70
2023-03-11T07:40:21.937Z,6.90
2023-03-11T07:42:50.418Z,6.30
2023-03-11T07:45:20.643Z,5.00
2023-03-11T07:47:49.430Z,6.60
2023-03-11T07:50:18.728Z,8.00
2023-03-11T07:52:47.383Z,7.60
2023-03-11T07:55:16.233Z,6.50
2023-03-11T07:57:47.965Z,6.30
2023-03-11T08:00:17.373Z,5.60
2023-03-11T08:02:46.352Z,5.30
2023-03-11T08:05:15.159Z,6.50
2023-03-11T08:07:44.151Z,6.10
2023-03-11T08:10:13.143Z,6.00
2023-03-11T08:12:41.727Z,9.80
2023-03-11T08:15:11.201Z,5.70
2023-03-11T08:17:39.918Z,7.20
2023-03-11T08:20:09.636Z,5.70
2023-03-11T08:22:48.728Z,6.40
2023-03-11T08:25:25.229Z,5.50
2023-03-11T08:27:53.983Z,7.00
2023-03-11T08:30:23.120Z,5.90
2023-03-11T08:32:51.828Z,7.30
2023-03-11T08:35:20.812Z,7.50
2023-03-11T08:37:49.488Z,6.70
2023-03-11T08:40:18.995Z,6.70
2023-03-11T08:42:47.576Z,6.30
2023-03-11T08:45:16.392Z,6.80
2023-03-11T08:47:45.152Z,7.70
2023-03-11T08:50:17.186Z,5.70
2023-03-11T08:52:46.108Z,6.00
2023-03-11T09:00:07.476Z,5.80
2023-03-11T09:03:35.745Z,6.10
2023-03-11T09:07:08.434Z,5.50
2023-03-11T09:13:45.245Z,5.90
2023-03-11T09:21:09.456Z,7.10
2023-03-11T09:24:37.660Z,9.20
2023-03-11T09:27:06.715Z,8.10
2023-03-11T09:29:35.212Z,9.10
2023-03-11T09:32:04.214Z,8.30
2023-03-11T09:34:33.418Z,8.30
2023-03-11T09:37:02.028Z,7.70
2023-03-11T09:39:31.208Z,8.50
2023-03-11T09:42:20.375Z,8.30
2023-03-11T09:45:02.902Z,9.10
2023-03-11T09:47:42.186Z,9.60
2023-03-11T09:50:35.584Z,12.10
2023-03-11T09:53:29.665Z,10.90
2023-03-11T09:56:00.481Z,12.60
2023-03-11T09:58:53.149Z,14.80
2023-03-11T10:01:26.687Z,16.10
2023-03-11T10:03:57.989Z,15.80
2023-03-11T10:06:30.491Z,16.20
2023-03-11T10:09:14.421Z,19.20
2023-03-11T10:12:15.159Z,19.40
2023-03-11T10:15:09.323Z,22.10
2023-03-11T10:17:56.170Z,17.60
2023-03-11T10:20:48.405Z,16.30
2023-03-11T10:23:43.704Z,16.70
2023-03-11T10:26:30.145Z,14.90
2023-03-11T10:29:24.406Z,15.00
2023-03-11T10:32:12.672Z,15.20
2023-03-11T10:35:07.960Z,13.80
2023-03-11T10:37:49.657Z,13.60
2023-03-11T10:40:43.319Z,14.30
2023-03-11T10:43:20.265Z,12.50
2023-03-11T10:45:51.370Z,13.20
2023-03-11T10:48:21.947Z,13.60
2023-03-11T10:51:14.526Z,15.30
2023-03-11T10:54:03.825Z,17.20
2023-03-11T10:56:38.458Z,17.10
2023-03-11T10:59:30.837Z,15.30
2023-03-11T11:02:21.785Z,17.70
2023-03-11T11:05:06.746Z,16.80
2023-03-11T11:07:39.766Z,16.20
2023-03-11T11:10:22.525Z,16.40
2023-03-11T11:12:54.517Z,17.20
2023-03-11T11:15:24.603Z,14.90
2023-03-11T11:17:57.011Z,18.10
2023-03-11T11:20:27.729Z,20.10
2023-03-11T11:23:06.686Z,19.80
2023-03-11T11:25:41.313Z,19.20
2023-03-11T11:28:19.625Z,19.90
2023-03-11T11:32:00.086Z,19.00
2023-03-11T11:34:34.823Z,15.10
2023-03-11T11:37:06.516Z,15.60
2023-03-11T11:39:52.178Z,15.10
2023-03-11T11:42:21.936Z,15.10
2023-03-11T11:44:57.038Z,17.90
2023-03-11T11:47:30.501Z,15.90
2023-03-11T11:50:07.456Z,14.60
2023-03-11T11:52:47.810Z,15.70
2023-03-11T11:55:31.176Z,16.80
2023-03-11T11:58:59.925Z,17.60
2023-03-11T12:02:16.490Z,13.50
2023-03-11T12:04:48.658Z,13.40
2023-03-11T12:07:55.121Z,12.80
2023-03-11T12:10:47.776Z,12.90
2023-03-11T12:13:44.430Z,15.30
2023-03-11T12:16:44.843Z,13.30
2023-03-11T12:19:56.649Z,14.30
2023-03-11T12:22:56.364Z,13.70
2023-03-11T12:25:32.865Z,13.50
2023-03-11T12:28:33.114Z,11.00
2023-03-11T12:31:07.205Z,12.70
2023-03-11T12:33:43.117Z,10.90
2023-03-11T12:36:45.095Z,10.80
2023-03-11T12:39:29.243Z,9.10
2023-03-11T12:42:19.334Z,9.90
2023-03-11T12:44:49.798Z,10.10
2023-03-11T12:47:22.648Z,9.30
2023-03-11T12:49:55.269Z,9.70
2023-03-11T12:52:26.526Z,9.70
2023-03-11T12:55:01.535Z,8.40
2023-03-11T12:57:43.098Z,9.10
2023-03-11T13:00:23.668Z,9.00
2023-03-11T13:03:27.423Z,8.00
2023-03-11T13:06:15.292Z,7.40
2023-03-11T13:08:52.719Z,7.40
2023-03-11T13:11:37.601Z,7.40
2023-03-11T13:14:29.927Z,9.20
2023-03-11T13:17:34.138Z,6.90
2023-03-11T13:20:02.930Z,7.80
2023-03-11T13:23:05.884Z,7.60
2023-03-11T13:26:17.117Z,9.30
2023-03-11T13:29:44.240Z,6.40
2023-03-11T13:32:40.562Z,7.30
2023-03-11T13:35:45.068Z,8.80
2023-03-11T13:38:30.301Z,7.20
2023-03-11T13:41:01.104Z,6.40
2023-03-11T13:43:29.824Z,7.70
2023-03-11T13:46:21.520Z,6.80
2023-03-11T13:51:28.459Z,8.40
2023-03-11T13:54:02.651Z,8.20
2023-03-11T13:56:44.018Z,6.80
2023-03-11T13:59:26.172Z,6.90
2023-03-11T14:02:01.270Z,7.60
2023-03-11T14:04:36.193Z,6.60
2023-03-11T14:07:20.317Z,5.90
2023-03-11T14:09:48.967Z,6.50
2023-03-11T14:12:19.159Z,6.50
2023-03-11T14:14:59.494Z,6.20
2023-03-11T14:17:28.434Z,7.50
2023-03-11T14:20:29.378Z,7.20
2023-03-11T14:22:58.596Z,5.40
2023-03-11T14:26:26.933Z,6.20
2023-03-11T14:29:57.918Z,5.90
2023-03-11T14:32:34.059Z,5.20
2023-03-11T14:35:21.106Z,4.80
2023-03-11T14:37:50.394Z,5.30
2023-03-11T14:40:51.727Z,4.50
2023-03-11T14:43:22.275Z,4.70
2023-03-11T14:45:52.768Z,6.10
2023-03-11T14:48:37.464Z,5.40
2023-03-11T14:51:14.148Z,4.80
2023-03-11T14:53:49.918Z,5.30
2023-03-11T14:56:22.116Z,7.50
2023-03-11T14:59:07.695Z,5.40
2023-03-11T15:01:43.268Z,6.90
2023-03-11T15:04:15.053Z,6.40
2023-03-11T15:06:45.609Z,5.30
2023-03-11T15:09:17.958Z,5.40
2023-03-11T15:11:50.970Z,8.40
2023-03-11T15:14:26.498Z,5.60
2023-03-11T15:16:56.574Z,5.60
2023-03-11T15:19:28.380Z,5.40
2023-03-11T15:21:59.911Z,7.10
2023-03-11T15:24:31.632Z,5.10
2023-03-11T15:27:04.522Z,5.80
2023-03-11T15:29:35.360Z,5.30
2023-03-11T15:32:42.999Z,4.20
2023-03-11T15:35:28.090Z,4.60
2023-03-11T15:38:25.617Z,4.80
2023-03-11T15:42:04.893Z,4.60
2023-03-11T15:45:13.834Z,7.00
2023-03-11T15:47:43.199Z,5.60
2023-03-11T15:50:43.119Z,9.10
2023-03-11T15:53:18.694Z,7.00
2023-03-11T15:55:48.003Z,10.40
2023-03-11T15:58:18.576Z,9.00
2023-03-11T16:00:59.603Z,8.00
2023-03-11T16:03:31.202Z,10.30
2023-03-11T16:05:59.871Z,4.40
2023-03-11T16:08:28.726Z,5.60
2023-03-11T16:10:58.449Z,5.80
2023-03-11T16:13:27.037Z,6.30
2023-03-11T16:15:55.850Z,6.40
2023-03-11T16:18:24.726Z,5.00
2023-03-11T16:20:55.689Z,5.00
2023-03-11T16:23:44.869Z,4.70
2023-03-11T16:26:21.241Z,4.30
2023-03-11T16:28:50.180Z,3.50
2023-03-11T16:31:18.806Z,4.50
2023-03-11T16:33:47.868Z,2.70
2023-03-11T16:36:16.655Z,5.30
2023-03-11T16:38:48.033Z,6.20
2023-03-11T16:41:18.096Z,6.00
2023-03-11T16:43:46.963Z,5.10
2023-03-11T16:46:15.630Z,4.80
2023-03-11T16:48:45.113Z,4.20
2023-03-11T16:51:13.594Z,6.40
2023-03-11T16:53:42.585Z,3.40
2023-03-11T16:56:11.679Z,4.00
2023-03-11T16:58:40.170Z,4.80
2023-03-11T17:01:12.815Z,4.50
2023-03-11T17:03:43.609Z,5.00
2023-03-11T17:06:12.594Z,7.20
2023-03-11T17:08:41.436Z,7.90
2023-03-11T17:11:21.835Z,9.20
2023-03-11T17:13:51.207Z,8.60
2023-03-11T17:16:20.871Z,11.70
2023-03-11T17:18:49.324Z,10.40
2023-03-11T17:21:18.795Z,8.80
2023-03-11T17:23:47.519Z,7.50
2023-03-11T17:26:17.431Z,11.80
2023-03-11T17:28:47.414Z,12.10
2023-03-11T17:31:16.936Z,5.60
2023-03-11T17:33:45.861Z,5.80
2023-03-11T17:36:17.145Z,5.40
2023-03-11T17:38:47.631Z,5.30
2023-03-11T17:41:17.931Z,4.50
2023-03-11T17:43:47.872Z,4.80
2023-03-11T17:46:18.829Z,7.30
2023-03-11T17:48:49.618Z,6.80
2023-03-11T17:51:24.127Z,3.70
2023-03-11T17:53:55.471Z,4.60
2023-03-11T17:56:24.220Z,9.00
2023-03-11T17:58:53.253Z,5.60
2023-03-11T18:01:24.925Z,6.70
2023-03-11T18:03:53.869Z,5.50
2023-03-11T18:06:23.862Z,5.70
2023-03-11T18:08:53.068Z,9.10
2023-03-11T18:11:24.186Z,7.40
2023-03-11T18:13:54.306Z,5.20
2023-03-11T18:16:41.695Z,6.00
2023-03-11T18:19:10.973Z,4.40
2023-03-11T18:21:39.748Z,4.90
2023-03-11T18:24:08.197Z,7.60
2023-03-11T18:26:37.015Z,4.80
2023-03-11T18:29:05.599Z,5.60
2023-03-11T18:31:34.217Z,4.40
2023-03-11T18:34:05.324Z,6.80
2023-03-11T18:36:36.903Z,6.90
2023-03-11T18:41:35.685Z,6.50
2023-03-11T18:44:05.071Z,7.40
2023-03-11T18:46:34.084Z,7.20
2023-03-11T18:49:04.209Z,5.50
2023-03-11T18:51:33.511Z,8.00
2023-03-11T18:54:03.015Z,6.50
2023-03-11T18:56:31.811Z,7.50
2023-03-11T18:59:00.570Z,7.20
2023-03-11T19:01:29.698Z,7.30
2023-03-11T19:04:00.686Z,8.70
2023-03-11T19:06:29.942Z,4.60
2023-03-11T19:08:59.139Z,10.30
2023-03-11T19:11:27.821Z,5.00
2023-03-11T19:13:56.408Z,5.00
2023-03-11T19:16:26.477Z,5.20
2023-03-11T19:18:56.548Z,4.00
2023-03-11T19:21:26.269Z,4.60
2023-03-11T19:23:56.714Z,5.40
2023-03-11T19:26:41.432Z,4.90
2023-03-11T19:29:12.646Z,6.20
2023-03-11T19:31:41.691Z,7.10
2023-03-11T19:34:10.187Z,4.40
2023-03-11T19:36:39.770Z,4.30
2023-03-11T19:39:08.581Z,5.70
2023-03-11T19:41:39.312Z,4.80
2023-03-11T19:44:08.346Z,9.20
2023-03-11T19:46:37.199Z,7.80
2023-03-11T19:49:05.676Z,8.80
2023-03-11T19:51:48.473Z,8.20
2023-03-11T19:54:18.711Z,6.00
2023-03-11T19:56:48.468Z,5.50
2023-03-11T19:59:17.436Z,4.10
2023-03-11T20:01:46.477Z,3.40
2023-03-11T20:04:15.589Z,3.20
2023-03-11T20:06:45.530Z,5.00
2023-03-11T20:09:16.354Z,2.70
2023-03-11T20:11:45.954Z,2.90
2023-03-11T20:14:14.773Z,3.80
2023-03-11T20:16:43.694Z,3.50
2023-03-11T20:19:12.557Z,3.60
2023-03-11T20:21:42.061Z,5.50
2023-03-11T20:24:11.684Z,3.50
2023-03-11T20:26:40.761Z,4.50
2023-03-11T20:29:09.267Z,4.20
2023-03-11T20:31:38.344Z,3.00
2023-03-11T20:34:07.224Z,5.40
2023-03-11T20:36:35.906Z,2.70
2023-03-11T20:39:09.449Z,6.50
2023-03-11T20:41:40.781Z,4.70
2023-03-11T20:44:13.512Z,4.60
2023-03-11T20:46:42.791Z,5.50
2023-03-11T20:49:11.826Z,5.40
2023-03-11T20:51:41.909Z,4.90
2023-03-11T20:54:12.342Z,4.10
2023-03-11T20:56:41.643Z,4.70
2023-03-11T20:59:14.187Z,3.00
2023-03-11T21:01:43.934Z,3.20
2023-03-11T21:04:14.551Z,3.30
2023-03-11T21:06:49.905Z,5.60
2023-03-11T21:09:19.285Z,5.40
2023-03-11T21:11:48.432Z,6.40
2023-03-11T21:14:19.040Z,4.80
2023-03-11T21:16:48.076Z,4.40
2023-03-11T21:19:17.159Z,8.20
2023-03-11T21:21:46.072Z,5.20
2023-03-11T21:24:15.541Z,4.00
2023-03-11T21:26:44.416Z,4.60
2023-03-11T21:29:13.505Z,3.80
2023-03-11T21:31:42.131Z,6.60
2023-03-11T21:34:12.161Z,5.00
2023-03-11T21:36:41.553Z,5.20
2023-03-11T21:39:10.471Z,6.90
2023-03-11T21:41:40.146Z,5.70
2023-03-11T21:44:09.003Z,4.60
2023-03-11T21:46:37.985Z,4.70
2023-03-11T21:49:06.881Z,4.80
2023-03-11T21:51:35.829Z,5.30
2023-03-11T21:54:05.692Z,5.80
2023-03-11T21:56:34.563Z,3.50
2023-03-11T21:59:04.261Z,6.20
2023-03-11T22:01:33.013Z,4.90
2023-03-11T22:04:02.581Z,6.80
2023-03-11T22:06:33.732Z,8.80
2023-03-11T22:09:03.532Z,4.50
2023-03-11T22:11:32.523Z,6.50
2023-03-11T22:14:01.518Z,3.50
2023-03-11T22:16:30.416Z,4.10
2023-03-11T22:18:59.171Z,4.00
2023-03-11T22:21:27.984Z,6.50
2023-03-11T22:23:56.743Z,3.90
2023-03-11T22:26:25.431Z,6.50
2023-03-11T22:28:54.501Z,4.70
2023-03-11T22:31:23.668Z,3.00
2023-03-11T22:33:52.215Z,7.50
2023-03-11T22:36:20.941Z,7.10
2023-03-11T22:38:50.097Z,4.40
2023-03-11T22:41:20.572Z,5.20
2023-03-11T22:43:49.217Z,6.70
2023-03-11T22:46:18.196Z,8.40
2023-03-11T22:48:47.206Z,7.90
2023-03-11T22:51:16.068Z,6.00
2023-03-11T22:53:44.674Z,8.00
2023-03-11T22:56:15.756Z,4.40
2023-03-11T22:58:45.141Z,5.20
2023-03-11T23:01:14.440Z,5.60
2023-03-11T23:03:43.919Z,6.40
2023-03-11T23:06:16.710Z,4.30
2023-03-11T23:08:46.073Z,10.60
2023-03-11T23:11:16.964Z,8.40
2023-03-11T23:13:45.639Z,6.10
2023-03-11T23:16:17.125Z,5.10
2023-03-11T23:18:47.932Z,6.50
2023-03-11T23:21:21.019Z,14.70
2023-03-11T23:23:50.732Z,6.20
2023-03-11T23:26:20.455Z,7.50
2023-03-11T23:28:51.558Z,5.30
2023-03-11T23:31:22.897Z,5.20
2023-03-11T23:33:52.133Z,4.10
2023-03-11T23:36:22.831Z,8.20
2023-03-11T23:38:51.454Z,5.30
2023-03-11T23:41:21.784Z,5.30
2023-03-11T23:43:50.976Z,6.50
2023-03-11T23:46:20.016Z,5.90
2023-03-11T23:48:49.274Z,9.60
2023-03-11T23:51:18.656Z,4.70
2023-03-11T23:53:47.574Z,4.60
2023-03-11T23:56:19.077Z,3.70
2023-03-11T23:58:48.009Z,6.40
